TimeCDT,TemperatureF,Dew PointF,Humidity,Sea Level PressureIn,VisibilityMPH,Wind Direction,Wind SpeedMPH,Gust SpeedMPH,PrecipitationIn,Events,Conditions,WindDirDegrees,DateUTC
12:35 AM,64.4,62.6,94,29.83,7.0,SSW,11.5,18.4,N/A,Rain,Light Rain,200,2012-10-14 05:35:00
12:55 AM,64.4,62.6,94,29.83,7.0,South,5.8,-,N/A,Rain,Light Rain,190,2012-10-14 05:55:00
1:15 AM,64.4,62.6,94,29.82,7.0,South,8.1,-,N/A,Rain,Light Rain,190,2012-10-14 06:15:00
1:35 AM,62.6,62.6,100,29.81,5.0,South,6.9,-,N/A,Rain,Rain,180,2012-10-14 06:35:00
1:55 AM,62.6,62.6,100,29.81,5.0,South,4.6,-,N/A,Rain,Light Rain,190,2012-10-14 06:55:00
2:15 AM,62.6,60.8,94,29.81,7.0,South,5.8,-,N/A,Rain,Light Rain,170,2012-10-14 07:15:00
2:35 AM,62.6,60.8,94,29.80,5.0,South,6.9,-,N/A,Rain,Light Rain,180,2012-10-14 07:35:00
2:55 AM,62.6,60.8,94,29.79,5.0,South,6.9,-,N/A,Rain,Rain,170,2012-10-14 07:55:00
3:15 AM,62.6,60.8,94,29.78,5.0,South,6.9,-,N/A,Rain,Light Rain,180,2012-10-14 08:15:00
3:35 AM,62.6,62.6,100,29.77,5.0,South,8.1,-,N/A,Rain,Heavy Rain,180,2012-10-14 08:35:00
3:55 AM,62.6,62.6,100,29.75,5.0,South,12.7,17.3,N/A,Rain,Rain,180,2012-10-14 08:55:00
4:15 AM,62.6,62.6,100,29.74,5.0,South,11.5,19.6,N/A,Rain,Rain,170,2012-10-14 09:15:00
4:35 AM,62.6,62.6,100,29.74,7.0,South,11.5,17.3,N/A,Rain,Light Rain,190,2012-10-14 09:35:00
4:55 AM,62.6,60.8,94,29.74,7.0,South,8.1,16.1,N/A,,Overcast,180,2012-10-14 09:55:00
5:15 AM,62.6,60.8,94,29.72,7.0,South,5.8,-,N/A,,Mostly Cloudy,170,2012-10-14 10:15:00
5:35 AM,62.6,60.8,94,29.71,7.0,South,9.2,-,N/A,,Mostly Cloudy,170,2012-10-14 10:35:00
6:15 AM,64.4,60.8,88,29.67,10.0,SSE,9.2,-,N/A,,Mostly Cloudy,160,2012-10-14 11:15:00
6:35 AM,64.4,60.8,88,29.65,10.0,South,13.8,17.3,N/A,,Mostly Cloudy,170,2012-10-14 11:35:00
6:55 AM,64.4,60.8,88,29.64,10.0,South,11.5,19.6,N/A,,Light Drizzle,190,2012-10-14 11:55:00
7:15 AM,64.4,60.8,88,29.64,10.0,South,12.7,23.0,N/A,Rain,Rain,190,2012-10-14 12:15:00
7:35 AM,64.4,60.8,88,29.62,10.0,SSW,13.8,18.4,N/A,,Scattered Clouds,200,2012-10-14 12:35:00
7:55 AM,64.4,60.8,88,29.63,10.0,South,10.4,19.6,N/A,,Clear,180,2012-10-14 12:55:00
8:15 AM,64.4,60.8,88,29.62,10.0,South,13.8,25.3,N/A,,Scattered Clouds,190,2012-10-14 13:15:00
8:35 AM,64.4,60.8,88,29.61,10.0,South,13.8,19.6,N/A,,Scattered Clouds,180,2012-10-14 13:35:00
8:55 AM,66.2,60.8,83,29.61,10.0,South,13.8,21.9,N/A,,Mostly Cloudy,190,2012-10-14 13:55:00
9:15 AM,68.0,60.8,78,29.60,10.0,SSW,16.1,26.5,N/A,,Overcast,200,2012-10-14 14:15:00
9:35 AM,68.0,62.6,83,29.61,10.0,South,13.8,21.9,N/A,,Overcast,190,2012-10-14 14:35:00
9:55 AM,68.0,62.6,83,29.61,10.0,SSW,17.3,23.0,N/A,,Overcast,200,2012-10-14 14:55:00
10:15 AM,68.0,62.6,83,29.62,10.0,SSW,13.8,25.3,N/A,,Overcast,200,2012-10-14 15:15:00
10:35 AM,68.0,60.8,78,29.62,10.0,SSW,16.1,27.6,N/A,,Overcast,200,2012-10-14 15:35:00
10:55 AM,68.0,60.8,78,29.61,10.0,SSW,24.2,28.8,N/A,,Overcast,210,2012-10-14 15:55:00
11:15 AM,68.0,60.8,78,29.60,10.0,SSW,20.7,29.9,N/A,,Overcast,200,2012-10-14 16:15:00
11:35 AM,69.8,59.0,68,29.58,10.0,SSW,26.5,33.4,N/A,,Overcast,210,2012-10-14 16:35:00
11:55 AM,68.0,59.0,73,29.58,10.0,SW,23.0,38.0,N/A,Rain,Rain,220,2012-10-14 16:55:00
12:15 PM,68.0,59.0,73,29.57,10.0,SSW,13.8,32.2,N/A,,Overcast,200,2012-10-14 17:15:00
12:35 PM,69.8,59.0,68,29.57,10.0,SSW,20.7,32.2,N/A,,Overcast,210,2012-10-14 17:35:00
12:55 PM,69.8,59.0,68,29.55,10.0,SSW,20.7,35.7,N/A,,Overcast,210,2012-10-14 17:55:00
1:15 PM,69.8,57.2,64,29.54,10.0,SW,19.6,32.2,N/A,,Mostly Cloudy,220,2012-10-14 18:15:00
1:35 PM,71.6,55.4,57,29.52,10.0,SW,18.4,32.2,N/A,,Scattered Clouds,220,2012-10-14 18:35:00
1:55 PM,71.6,55.4,57,29.51,10.0,SSW,17.3,33.4,N/A,,Mostly Cloudy,200,2012-10-14 18:55:00
2:15 PM,64.4,57.2,77,29.51,7.0,SSW,20.7,36.8,N/A,Rain,Rain,210,2012-10-14 19:15:00
2:35 PM,68.0,59.0,73,29.49,10.0,SW,15.0,24.2,N/A,,Mostly Cloudy,220,2012-10-14 19:35:00
2:55 PM,68.0,59.0,73,29.48,10.0,SSW,18.4,24.2,N/A,,Mostly Cloudy,210,2012-10-14 19:55:00
3:15 PM,69.8,55.4,60,29.48,10.0,SSW,12.7,36.8,N/A,,Overcast,210,2012-10-14 20:15:00
3:35 PM,69.8,55.4,60,29.47,10.0,SSW,18.4,26.5,N/A,,Mostly Cloudy,210,2012-10-14 20:35:00
3:55 PM,68.0,55.4,64,29.47,10.0,SSW,16.1,35.7,N/A,,Overcast,200,2012-10-14 20:55:00
4:15 PM,62.6,55.4,77,29.47,1.2,SW,13.8,35.7,N/A,Rain,Light Rain,220,2012-10-14 21:15:00
4:35 PM,62.6,59.0,88,29.45,10.0,SSW,9.2,-,N/A,,Overcast,200,2012-10-14 21:35:00
4:55 PM,62.6,59.0,88,29.47,7.0,SW,23.0,32.2,N/A,Rain,Rain,220,2012-10-14 21:55:00
5:15 PM,62.6,57.2,82,29.45,10.0,SW,18.4,26.5,N/A,,Overcast,220,2012-10-14 22:15:00
5:35 PM,60.8,55.4,82,29.46,10.0,WSW,27.6,39.1,N/A,,Overcast,250,2012-10-14 22:35:00
5:55 PM,59.0,51.8,77,29.47,10.0,SW,28.8,39.1,N/A,,Overcast,230,2012-10-14 22:55:00
6:15 PM,55.4,53.6,94,29.47,5.0,SW,18.4,31.1,N/A,Rain,Light Rain,220,2012-10-14 23:15:00
6:35 PM,55.4,53.6,94,29.48,10.0,WSW,11.5,19.6,N/A,,Overcast,240,2012-10-14 23:35:00
6:55 PM,55.4,53.6,94,29.49,4.0,WSW,12.7,25.3,N/A,Rain,Heavy Rain,250,2012-10-14 23:55:00
7:15 PM,53.6,50.0,88,29.56,10.0,NW,20.7,33.4,N/A,,Overcast,310,2012-10-15 00:15:00
7:35 PM,51.8,50.0,94,29.61,5.0,WNW,18.4,32.2,N/A,,Heavy Drizzle,290,2012-10-15 00:35:00
7:55 PM,50.0,48.2,94,29.64,4.0,WNW,18.4,27.6,N/A,Rain,Rain,300,2012-10-15 00:55:00
8:15 PM,50.0,48.2,94,29.66,3.0,WNW,19.6,32.2,N/A,,Heavy Drizzle,300,2012-10-15 01:15:00
8:35 PM,50.0,48.2,94,29.67,5.0,WNW,18.4,27.6,N/A,,Drizzle,290,2012-10-15 01:35:00
8:55 PM,50.0,48.2,94,29.69,5.0,WNW,13.8,23.0,N/A,,Drizzle,290,2012-10-15 01:55:00
9:15 PM,50.0,46.4,87,29.70,10.0,WNW,16.1,25.3,N/A,,Overcast,300,2012-10-15 02:15:00
9:35 PM,50.0,46.4,87,29.71,10.0,WNW,12.7,21.9,N/A,,Drizzle,300,2012-10-15 02:35:00
9:55 PM,50.0,46.4,87,29.72,5.0,WNW,13.8,21.9,N/A,,Drizzle,300,2012-10-15 02:55:00
10:15 PM,50.0,46.4,87,29.73,10.0,WNW,18.4,21.9,N/A,,Overcast,290,2012-10-15 03:15:00
10:35 PM,50.0,46.4,87,29.74,10.0,WNW,16.1,24.2,N/A,,Overcast,300,2012-10-15 03:35:00
10:55 PM,50.0,46.4,87,29.74,10.0,WNW,11.5,18.4,N/A,,Light Drizzle,290,2012-10-15 03:55:00
11:15 PM,50.0,46.4,87,29.75,10.0,WNW,11.5,16.1,N/A,,Light Drizzle,290,2012-10-15 04:15:00
11:35 PM,50.0,44.6,82,29.76,10.0,West,10.4,20.7,N/A,,Overcast,280,2012-10-15 04:35:00